Time;durP1;ratioP1;P1;durP2;ratioP2;P2;SDS_P1;SDS_P2;PMS_P1;PMS_P2;Temp;Humidity;BMP_temperature;BMP_pressure;BME280_temperature;BME280_humidity;BME280_pressure;Samples;Min_cycle;Max_cycle;Signal;HPM_P1;HPM_P2
2023/04/07 00:01:21;;;;;;;14.32;7.95;;;7.90;79.40;;;;;;5011575;28;20030;-71
2023/04/07 00:03:46;;;;;;;17.13;8.75;;;7.90;79.60;;;;;;5010832;28;20445;-72
2023/04/07 00:06:12;;;;;;;15.10;8.68;;;7.90;79.30;;;;;;5009583;28;20136;-72
2023/04/07 00:08:39;;;;;;;18.58;8.18;;;7.90;79.70;;;;;;5010529;28;20037;-72
2023/04/07 00:11:05;;;;;;;12.73;7.60;;;7.90;79.40;;;;;;5009963;28;20030;-72
2023/04/07 00:13:30;;;;;;;14.57;8.23;;;7.80;79.80;;;;;;5011554;28;20030;-72
2023/04/07 00:15:56;;;;;;;13.43;8.05;;;7.90;79.20;;;;;;5011654;28;20026;-71
2023/04/07 00:18:22;;;;;;;17.58;8.13;;;7.90;79.70;;;;;;5011033;28;20472;-72
2023/04/07 00:20:47;;;;;;;16.67;8.07;;;7.90;79.10;;;;;;5011824;28;20476;-72
2023/04/07 00:23:13;;;;;;;13.73;8.00;;;8.00;79.20;;;;;;5009985;28;20485;-72
2023/04/07 00:25:39;;;;;;;14.07;8.75;;;7.90;79.40;;;;;;5010362;28;20511;-72
2023/04/07 00:28:04;;;;;;;19.92;8.10;;;7.90;79.40;;;;;;5011335;28;20190;-71
2023/04/07 00:30:30;;;;;;;17.50;8.80;;;7.90;79.50;;;;;;5010626;28;20026;-72
2023/04/07 00:32:56;;;;;;;14.05;8.20;;;7.90;79.80;;;;;;5008152;28;20029;-72
2023/04/07 00:35:21;;;;;;;16.48;9.30;;;7.90;78.90;;;;;;5011960;28;20120;-71
2023/04/07 00:37:47;;;;;;;16.13;8.75;;;8.00;79.00;;;;;;5012289;28;20564;-72
2023/04/07 00:40:13;;;;;;;14.57;8.45;;;7.90;79.30;;;;;;5011717;28;20476;-72
2023/04/07 00:42:38;;;;;;;17.08;9.25;;;7.90;79.40;;;;;;5009523;28;20501;-72
2023/04/07 00:45:05;;;;;;;15.02;8.15;;;7.90;79.50;;;;;;5010704;28;20104;-72
2023/04/07 00:47:30;;;;;;;15.02;7.70;;;7.90;79.70;;;;;;5010251;28;20542;-72
2023/04/07 00:49:56;;;;;;;14.93;8.85;;;7.90;79.80;;;;;;5010793;28;20029;-71
2023/04/07 00:52:27;;;;;;;15.68;8.40;;;7.80;79.80;;;;;;5008562;28;20034;-71
2023/04/07 00:54:56;;;;;;;14.48;7.88;;;7.90;79.30;;;;;;5010548;28;20488;-72
2023/04/07 00:57:22;;;;;;;20.55;8.88;;;7.90;79.70;;;;;;5012258;28;20033;-71
2023/04/07 00:59:49;;;;;;;14.85;7.90;;;7.90;79.50;;;;;;5008759;28;20030;-71
2023/04/07 01:02:21;;;;;;;20.13;9.00;;;8.00;79.50;;;;;;5009224;28;20160;-71
2023/04/07 01:04:47;;;;;;;17.35;9.40;;;8.00;79.20;;;;;;5007138;28;20033;-72
2023/04/07 01:07:33;;;;;;;16.00;8.85;;;8.00;78.90;;;;;;5011361;28;20042;-72
2023/04/07 01:10:05;;;;;;;16.10;7.90;;;8.10;78.70;;;;;;5007903;28;20117;-72
2023/04/07 01:12:48;;;;;;;15.43;8.85;;;8.20;78.30;;;;;;5009516;28;20034;-72
2023/04/07 01:15:18;;;;;;;15.00;9.23;;;8.20;78.00;;;;;;5005062;28;20114;-72
2023/04/07 01:17:53;;;;;;;14.02;8.48;;;8.30;77.90;;;;;;5011547;28;20049;-72
2023/04/07 01:20:21;;;;;;;;;;;8.30;77.80;;;;;;5009336;28;20496;-72
2023/04/07 01:22:56;;;;;;;21.10;8.75;;;8.30;77.70;;;;;;5010622;28;20273;-72
2023/04/07 01:25:59;;;;;;;15.82;8.52;;;8.20;78.20;;;;;;5008846;28;20488;-72
2023/04/07 01:29:01;;;;;;;20.80;9.60;;;8.20;78.10;;;;;;5007734;28;20034;-72
2023/04/07 01:31:29;;;;;;;16.20;7.80;;;8.10;78.70;;;;;;5007364;28;20037;-71
2023/04/07 01:33:58;;;;;;;18.65;9.18;;;8.10;78.80;;;;;;5008649;28;20498;-72
2023/04/07 01:36:27;;;;;;;16.60;9.30;;;8.10;78.80;;;;;;5010913;28;20034;-72
2023/04/07 01:38:54;;;;;;;13.93;8.80;;;8.10;78.80;;;;;;5005402;28;20056;-72
2023/04/07 01:41:22;;;;;;;15.68;9.43;;;8.10;78.30;;;;;;5009655;28;20448;-72
2023/04/07 01:43:48;;;;;;;17.45;9.50;;;8.10;78.20;;;;;;5010675;28;20395;-71
2023/04/07 01:46:14;;;;;;;16.67;8.85;;;8.10;78.40;;;;;;5008626;28;20049;-72
2023/04/07 01:48:41;;;;;;;15.98;9.13;;;8.20;77.90;;;;;;5004695;28;20034;-72
2023/04/07 01:51:07;;;;;;;15.93;9.07;;;8.10;77.30;;;;;;5009360;28;20030;-72
2023/04/07 01:53:36;;;;;;;15.57;9.10;;;8.20;77.50;;;;;;5010337;28;20030;-72
2023/04/07 01:56:02;;;;;;;15.70;7.75;;;8.10;77.50;;;;;;5007303;28;20533;-72
2023/04/07 01:58:28;;;;;;;13.65;7.57;;;8.10;78.20;;;;;;5009547;28;20095;-72
2023/04/07 02:00:54;;;;;;;13.98;7.70;;;8.00;78.90;;;;;;5010097;28;20484;-72
2023/04/07 02:03:26;;;;;;;12.65;8.48;;;7.90;78.90;;;;;;5010134;28;20049;-72
2023/04/07 02:05:56;;;;;;;15.45;8.52;;;7.80;79.30;;;;;;5006780;28;20472;-72
2023/04/07 02:08:26;;;;;;;14.65;7.80;;;8.00;79.40;;;;;;5009476;28;20036;-71
2023/04/07 02:10:54;;;;;;;13.50;7.80;;;7.80;79.20;;;;;;5007123;28;20038;-72
2023/04/07 02:13:20;;;;;;;11.55;7.38;;;7.80;79.00;;;;;;5010769;28;20084;-72
2023/04/07 02:15:47;;;;;;;13.38;7.47;;;7.80;79.00;;;;;;5010382;28;20495;-71
2023/04/07 02:18:14;;;;;;;14.98;8.50;;;7.80;79.20;;;;;;5010457;28;20536;-71
2023/04/07 02:20:42;;;;;;;15.63;8.82;;;8.00;78.40;;;;;;5010286;28;20519;-72
2023/04/07 02:23:09;;;;;;;14.70;8.10;;;8.10;78.30;;;;;;5007977;28;20032;-72
2023/04/07 02:25:37;;;;;;;22.48;8.45;;;8.20;77.90;;;;;;5010536;28;20103;-72
2023/04/07 02:28:03;;;;;;;14.15;8.23;;;8.20;78.30;;;;;;5010461;28;20030;-72
2023/04/07 02:30:30;;;;;;;16.60;8.75;;;8.20;78.60;;;;;;5009452;28;20034;-72
2023/04/07 02:32:56;;;;;;;13.45;8.77;;;8.10;79.00;;;;;;5007689;28;20030;-72
2023/04/07 02:35:22;;;;;;;19.88;10.55;;;8.00;79.20;;;;;;5009648;28;20049;-72
2023/04/07 02:37:48;;;;;;;18.33;8.70;;;7.90;79.80;;;;;;5009338;28;20384;-72
2023/04/07 02:40:14;;;;;;;15.85;8.55;;;7.70;79.50;;;;;;5009160;28;20033;-71
2023/04/07 02:42:40;;;;;;;14.68;8.35;;;7.80;79.80;;;;;;5008792;28;20022;-72
2023/04/07 02:45:07;;;;;;;13.43;8.48;;;7.80;80.00;;;;;;5009012;28;20551;-72
2023/04/07 02:47:34;;;;;;;13.52;7.97;;;7.80;80.00;;;;;;5008974;28;20096;-72
2023/04/07 02:49:59;;;;;;;15.73;7.75;;;7.80;80.10;;;;;;5005695;28;20026;-72
2023/04/07 02:52:25;;;;;;;14.10;7.70;;;7.80;80.40;;;;;;5009167;28;20427;-71
2023/04/07 02:54:51;;;;;;;16.38;8.30;;;7.70;81.00;;;;;;5008664;28;20049;-73
2023/04/07 02:57:17;;;;;;;15.90;9.07;;;7.70;81.20;;;;;;5010335;28;20037;-71
2023/04/07 02:59:42;;;;;;;13.95;8.20;;;7.50;81.30;;;;;;5007973;28;20026;-72
2023/04/07 03:02:08;;;;;;;12.93;7.82;;;7.60;81.00;;;;;;5009137;28;20033;-71
2023/04/07 03:04:34;;;;;;;19.48;9.57;;;7.50;81.70;;;;;;5001991;28;20029;-70
2023/04/07 03:07:00;;;;;;;16.40;8.52;;;7.50;81.40;;;;;;5003797;28;20040;-71
2023/04/07 03:09:26;;;;;;;13.82;7.78;;;7.40;81.50;;;;;;4998947;28;20026;-70
2023/04/07 03:11:52;;;;;;;12.77;8.23;;;7.40;81.40;;;;;;5007458;28;20706;-70
2023/04/07 03:14:18;;;;;;;17.50;8.38;;;7.10;81.70;;;;;;5008652;28;20034;-70
2023/04/07 03:16:44;;;;;;;15.88;8.60;;;7.00;83.00;;;;;;5006351;28;20044;-70
2023/04/07 03:19:09;;;;;;;15.95;9.02;;;6.90;82.90;;;;;;5005295;28;20061;-70
2023/04/07 03:21:37;;;;;;;17.02;9.15;;;7.00;82.40;;;;;;5004897;28;20112;-70
2023/04/07 03:24:05;;;;;;;19.00;8.98;;;7.20;81.60;;;;;;5007799;28;20124;-70
2023/04/07 03:26:31;;;;;;;16.20;10.05;;;7.30;81.60;;;;;;5006604;28;20121;-70
2023/04/07 03:28:57;;;;;;;20.52;9.73;;;7.30;81.90;;;;;;5009238;28;20034;-70
2023/04/07 03:31:23;;;;;;;15.20;9.63;;;7.30;81.80;;;;;;5007740;28;20037;-70
2023/04/07 03:33:49;;;;;;;18.25;9.85;;;7.30;81.70;;;;;;5008172;28;20042;-73
2023/04/07 03:36:16;;;;;;;13.50;9.05;;;7.20;82.10;;;;;;5007680;28;20038;-71
2023/04/07 03:38:42;;;;;;;15.95;9.93;;;7.20;82.30;;;;;;5007763;28;20037;-71
2023/04/07 03:41:08;;;;;;;16.58;9.55;;;7.20;82.00;;;;;;5007476;28;20025;-72
2023/04/07 03:43:33;;;;;;;17.60;9.52;;;7.10;83.20;;;;;;5008525;28;20109;-71
2023/04/07 03:45:59;;;;;;;16.58;9.48;;;6.90;82.90;;;;;;5007305;28;20042;-71
2023/04/07 03:48:25;;;;;;;14.27;8.93;;;6.90;82.70;;;;;;5007198;28;20037;-71
2023/04/07 03:50:50;;;;;;;15.57;9.07;;;6.80;83.10;;;;;;5008739;28;20026;-71
2023/04/07 03:53:18;;;;;;;19.25;8.50;;;6.90;82.90;;;;;;5008476;28;20431;-72
2023/04/07 03:55:44;;;;;;;16.33;9.38;;;6.90;82.70;;;;;;5004838;28;20105;-70
2023/04/07 03:58:10;;;;;;;16.95;10.05;;;6.90;83.00;;;;;;5008295;28;20041;-71
2023/04/07 04:00:36;;;;;;;15.68;8.40;;;6.80;83.00;;;;;;5004696;28;20038;-71
2023/04/07 04:03:02;;;;;;;16.40;9.43;;;6.70;83.30;;;;;;5002445;28;20030;-71
2023/04/07 04:05:28;;;;;;;15.43;8.32;;;6.80;83.30;;;;;;5001607;28;20034;-72
2023/04/07 04:07:53;;;;;;;17.33;8.48;;;6.70;83.40;;;;;;5005174;28;20041;-71
2023/04/07 04:10:19;;;;;;;18.25;9.05;;;6.80;82.90;;;;;;5007492;28;20033;-71
2023/04/07 04:12:47;;;;;;;19.23;8.63;;;6.80;82.80;;;;;;5007177;28;20563;-71
2023/04/07 04:15:13;;;;;;;16.33;9.68;;;6.80;82.90;;;;;;5007780;28;20030;-70
2023/04/07 04:17:39;;;;;;;17.10;10.68;;;6.50;83.30;;;;;;5007846;28;20034;-70
2023/04/07 04:20:05;;;;;;;17.98;9.40;;;6.40;83.50;;;;;;5006223;28;20084;-70
2023/04/07 04:22:31;;;;;;;16.15;8.85;;;6.40;83.60;;;;;;5006440;28;20561;-71
2023/04/07 04:24:57;;;;;;;15.35;8.73;;;6.40;83.30;;;;;;5008152;28;20029;-71
2023/04/07 04:27:23;;;;;;;15.65;8.85;;;6.40;83.50;;;;;;5006572;28;20041;-71
2023/04/07 04:29:48;;;;;;;19.13;8.88;;;6.30;83.80;;;;;;5005576;28;20067;-71
2023/04/07 04:32:16;;;;;;;16.25;7.72;;;6.30;84.10;;;;;;5006534;28;20101;-71
2023/04/07 04:34:42;;;;;;;14.68;8.95;;;6.10;84.20;;;;;;5007192;28;20036;-70
2023/04/07 04:37:08;;;;;;;18.63;9.82;;;6.10;84.30;;;;;;5006162;28;20026;-71
2023/04/07 04:39:34;;;;;;;15.60;9.57;;;6.10;84.50;;;;;;5006175;28;20030;-71
2023/04/07 04:42:00;;;;;;;15.82;8.88;;;6.10;84.60;;;;;;5004499;28;20026;-72
2023/04/07 04:44:25;;;;;;;17.08;8.75;;;6.10;84.10;;;;;;5005720;28;20069;-71
2023/04/07 04:46:51;;;;;;;18.50;9.18;;;6.10;83.90;;;;;;5006434;28;20113;-71
2023/04/07 04:49:17;;;;;;;16.48;8.15;;;6.20;83.70;;;;;;5003754;28;20026;-71
2023/04/07 04:51:44;;;;;;;18.02;8.85;;;6.00;84.00;;;;;;5006305;28;20661;-71
2023/04/07 04:54:10;;;;;;;15.80;9.05;;;6.00;83.70;;;;;;5007046;28;20040;-71
2023/04/07 04:56:35;;;;;;;16.27;8.57;;;5.90;83.70;;;;;;5006546;28;20018;-70
2023/04/07 04:59:02;;;;;;;11.40;6.82;;;5.80;83.20;;;;;;5006059;28;20050;-70
2023/04/07 05:01:28;;;;;;;14.98;8.25;;;5.90;83.30;;;;;;5006546;28;20017;-71
2023/04/07 05:03:54;;;;;;;16.80;8.55;;;5.90;83.30;;;;;;5007218;28;20061;-71
2023/04/07 05:06:20;;;;;;;15.80;7.22;;;5.80;83.30;;;;;;5006198;28;20065;-70
2023/04/07 05:08:46;;;;;;;12.82;7.07;;;5.70;83.80;;;;;;5006300;28;20030;-71
2023/04/07 05:11:11;;;;;;;14.82;7.82;;;5.70;83.50;;;;;;5006255;28;20096;-70
2023/04/07 05:13:37;;;;;;;14.43;6.97;;;5.80;83.10;;;;;;5005288;28;20030;-70
2023/04/07 05:16:03;;;;;;;16.63;8.57;;;5.90;82.80;;;;;;5005906;28;20034;-70
2023/04/07 05:18:29;;;;;;;15.50;8.40;;;5.70;82.70;;;;;;5005867;28;20111;-70
2023/04/07 05:20:55;;;;;;;16.42;7.50;;;5.80;82.80;;;;;;5005700;28;20472;-70
2023/04/07 05:23:20;;;;;;;14.02;7.88;;;5.80;82.50;;;;;;5005741;28;22164;-71
2023/04/07 05:25:46;;;;;;;15.77;8.65;;;5.70;82.50;;;;;;5005058;28;20026;-70
2023/04/07 05:28:12;;;;;;;13.38;7.93;;;5.70;82.90;;;;;;5006219;28;20034;-70
2023/04/07 05:30:37;;;;;;;15.30;8.38;;;5.70;83.00;;;;;;5006008;28;20026;-70
2023/04/07 05:33:03;;;;;;;17.98;9.35;;;5.80;83.50;;;;;;5004861;28;20433;-71
2023/04/07 05:35:29;;;;;;;14.57;7.93;;;5.80;83.60;;;;;;5002630;28;20032;-71
2023/04/07 05:37:55;;;;;;;16.35;7.82;;;5.90;83.40;;;;;;5003976;28;20576;-71
2023/04/07 05:40:20;;;;;;;16.77;8.38;;;5.90;83.50;;;;;;5005573;28;20022;-70
2023/04/07 05:42:46;;;;;;;15.60;8.48;;;5.90;83.40;;;;;;5004262;28;20109;-71
2023/04/07 05:45:12;;;;;;;15.25;8.18;;;5.90;83.40;;;;;;5004621;28;20499;-71
2023/04/07 05:47:37;;;;;;;16.38;8.63;;;5.70;84.20;;;;;;5005196;28;20049;-70
2023/04/07 05:50:03;;;;;;;16.13;8.75;;;5.80;83.90;;;;;;5006141;28;20175;-70
2023/04/07 05:52:29;;;;;;;21.25;10.13;;;5.70;84.00;;;;;;5005439;28;20030;-71
2023/04/07 05:54:55;;;;;;;23.48;10.02;;;5.80;83.80;;;;;;5006100;28;20049;-71
2023/04/07 05:57:21;;;;;;;18.00;9.95;;;6.00;83.60;;;;;;5004929;28;20052;-70
2023/04/07 05:59:47;;;;;;;18.00;8.50;;;6.10;83.40;;;;;;5004799;28;20121;-70
2023/04/07 06:02:13;;;;;;;19.83;9.35;;;6.20;83.20;;;;;;5003964;28;20468;-70
2023/04/07 06:04:39;;;;;;;17.83;10.05;;;6.30;82.70;;;;;;5003993;28;20079;-70
2023/04/07 06:07:06;;;;;;;14.77;7.53;;;6.40;82.40;;;;;;5005126;28;20033;-70
2023/04/07 06:09:32;;;;;;;18.17;8.85;;;6.50;81.70;;;;;;5005267;28;20065;-70
2023/04/07 06:11:57;;;;;;;15.65;8.55;;;6.60;82.50;;;;;;5002764;28;20057;-70
2023/04/07 06:14:24;;;;;;;17.13;9.48;;;6.60;83.90;;;;;;5003375;28;20026;-71
2023/04/07 06:16:50;;;;;;;16.45;8.43;;;6.60;83.70;;;;;;5002935;28;20091;-70
2023/04/07 06:19:16;;;;;;;18.77;9.10;;;6.60;83.20;;;;;;5001377;28;20026;-70
2023/04/07 06:21:41;;;;;;;19.10;9.70;;;6.60;84.00;;;;;;5003635;28;20038;-70
2023/04/07 06:24:07;;;;;;;18.73;8.57;;;6.50;84.10;;;;;;5001361;28;20040;-71
2023/04/07 06:26:33;;;;;;;13.73;7.57;;;6.60;84.20;;;;;;5003389;28;20038;-70
2023/04/07 06:28:59;;;;;;;21.67;9.35;;;6.60;85.20;;;;;;5003157;28;20048;-70
2023/04/07 06:31:24;;;;;;;14.77;8.93;;;6.60;85.20;;;;;;5000146;28;20037;-71
2023/04/07 06:33:50;;;;;;;13.02;8.50;;;6.70;85.30;;;;;;5000596;28;20121;-70
2023/04/07 06:36:16;;;;;;;14.45;8.57;;;6.80;85.20;;;;;;5001974;28;20105;-71
2023/04/07 06:38:42;;;;;;;20.05;8.63;;;7.00;84.70;;;;;;4999786;28;20573;-71
2023/04/07 06:41:10;;;;;;;15.73;8.57;;;7.00;85.30;;;;;;5001906;28;20041;-70
2023/04/07 06:43:36;;;;;;;16.75;8.93;;;7.10;85.70;;;;;;5001045;28;20065;-70
2023/04/07 06:46:02;;;;;;;17.73;9.40;;;7.30;85.90;;;;;;5002948;28;20729;-70
2023/04/07 06:48:28;;;;;;;14.48;8.93;;;7.50;84.60;;;;;;5004788;28;20105;-70
2023/04/07 06:50:53;;;;;;;24.52;9.55;;;7.60;84.50;;;;;;5006098;28;20030;-71
2023/04/07 06:53:19;;;;;;;20.25;9.43;;;7.90;84.10;;;;;;5005048;28;20497;-72
2023/04/07 06:55:45;;;;;;;24.67;9.30;;;8.70;82.90;;;;;;5005124;28;20029;-70
2023/04/07 06:58:11;;;;;;;16.83;9.32;;;9.90;80.80;;;;;;5005024;28;20033;-70
2023/04/07 07:00:36;;;;;;;16.98;9.00;;;11.10;77.10;;;;;;5004818;28;20496;-71
2023/04/07 07:03:02;;;;;;;12.20;7.75;;;10.20;80.40;;;;;;5005719;28;20038;-71
2023/04/07 07:05:28;;;;;;;14.35;9.32;;;9.90;81.80;;;;;;5005267;28;20026;-72
2023/04/07 07:07:53;;;;;;;17.20;9.85;;;9.80;80.20;;;;;;5005009;28;20041;-70
2023/04/07 07:10:21;;;;;;;17.13;9.27;;;9.50;80.40;;;;;;5005769;28;20188;-70
2023/04/07 07:12:50;;;;;;;16.70;9.82;;;9.50;80.80;;;;;;5001521;28;20555;-70
2023/04/07 07:15:16;;;;;;;22.05;9.60;;;9.70;80.50;;;;;;5003153;28;20613;-70
2023/04/07 07:17:43;;;;;;;18.50;10.38;;;9.30;81.90;;;;;;4994542;28;20022;-70
2023/04/07 07:20:09;;;;;;;15.70;9.35;;;10.30;78.60;;;;;;5000496;28;20037;-73
2023/04/07 07:22:34;;;;;;;20.92;10.02;;;10.00;79.10;;;;;;5000907;28;20030;-69
2023/04/07 07:25:00;;;;;;;15.52;9.43;;;10.70;79.50;;;;;;5008080;28;20033;-70
2023/04/07 07:27:26;;;;;;;36.22;10.75;;;10.10;81.20;;;;;;5005072;28;20041;-69
2023/04/07 07:29:51;;;;;;;23.17;10.43;;;9.30;82.30;;;;;;5003318;28;20041;-70
2023/04/07 07:32:17;;;;;;;15.48;8.68;;;8.90;81.80;;;;;;5003376;28;20575;-71
2023/04/07 07:34:43;;;;;;;16.48;10.23;;;8.70;82.30;;;;;;5005161;28;20124;-71
2023/04/07 07:37:09;;;;;;;19.25;9.25;;;8.70;82.50;;;;;;5005827;28;20026;-71
2023/04/07 07:39:35;;;;;;;16.42;9.40;;;8.70;82.80;;;;;;5004722;28;20018;-71
2023/04/07 07:42:01;;;;;;;16.25;8.85;;;8.70;82.20;;;;;;5003908;28;20085;-71
2023/04/07 07:44:27;;;;;;;20.05;9.98;;;8.80;82.10;;;;;;5003667;28;20053;-71
2023/04/07 07:46:52;;;;;;;17.45;9.38;;;8.90;82.10;;;;;;5003428;28;20447;-71
2023/04/07 07:49:18;;;;;;;13.55;8.52;;;8.90;80.90;;;;;;5002427;28;20508;-72
2023/04/07 07:51:45;;;;;;;16.92;9.55;;;9.00;82.50;;;;;;5004922;28;20049;-71
2023/04/07 07:54:11;;;;;;;16.63;10.63;;;9.00;82.80;;;;;;5003759;28;20637;-71
2023/04/07 07:56:37;;;;;;;19.90;10.52;;;8.90;81.50;;;;;;5000942;28;20102;-71
2023/04/07 07:59:05;;;;;;;15.70;8.80;;;8.90;82.10;;;;;;5003833;28;20417;-71
2023/04/07 08:01:31;;;;;;;17.33;10.32;;;8.90;82.00;;;;;;5003815;28;20495;-71
2023/04/07 08:03:56;;;;;;;18.20;11.30;;;9.00;82.70;;;;;;5003607;28;20061;-72
2023/04/07 08:06:22;;;;;;;18.98;10.07;;;9.00;82.70;;;;;;5004676;28;20042;-72
2023/04/07 08:08:49;;;;;;;19.02;10.32;;;9.10;82.10;;;;;;5005194;28;20057;-70
2023/04/07 08:11:15;;;;;;;15.82;9.43;;;9.10;81.70;;;;;;5002221;28;20088;-72
2023/04/07 08:13:44;;;;;;;17.10;10.80;;;9.10;80.70;;;;;;5004392;28;20273;-71
2023/04/07 08:16:10;;;;;;;20.65;10.57;;;9.10;80.50;;;;;;5002131;28;20588;-72
2023/04/07 08:18:36;;;;;;;17.80;9.00;;;9.10;80.60;;;;;;5003652;28;20030;-71
2023/04/07 08:21:04;;;;;;;27.27;10.75;;;9.20;80.80;;;;;;4999939;28;20036;-71
2023/04/07 08:23:30;;;;;;;19.20;10.85;;;9.30;82.60;;;;;;5001713;28;20044;-71
2023/04/07 08:25:56;;;;;;;21.52;10.50;;;9.30;82.10;;;;;;5002196;28;20022;-72
2023/04/07 08:28:22;;;;;;;18.23;10.13;;;9.40;80.70;;;;;;5003930;28;20026;-71
2023/04/07 08:30:48;;;;;;;19.25;9.95;;;9.40;80.70;;;;;;5003524;28;20033;-71
2023/04/07 08:33:14;;;;;;;22.77;10.95;;;9.50;81.50;;;;;;5003060;28;20030;-71
2023/04/07 08:35:40;;;;;;;19.23;10.32;;;9.50;80.40;;;;;;5016342;28;20034;-71
2023/04/07 08:38:07;;;;;;;18.05;11.40;;;9.70;80.90;;;;;;5003183;28;20558;-71
2023/04/07 08:40:33;;;;;;;18.70;9.50;;;9.70;79.70;;;;;;5003742;28;20120;-72
2023/04/07 08:43:00;;;;;;;17.35;9.88;;;9.80;79.80;;;;;;5004109;28;20448;-72
2023/04/07 08:45:26;;;;;;;15.20;9.63;;;9.90;79.00;;;;;;5002572;28;20551;-71
2023/04/07 08:47:57;;;;;;;17.23;11.15;;;9.90;79.40;;;;;;5003695;28;20034;-72
2023/04/07 08:50:26;;;;;;;18.75;10.75;;;10.10;80.00;;;;;;5003631;28;20534;-72
2023/04/07 08:52:59;;;;;;;17.75;10.52;;;10.10;78.90;;;;;;5001083;28;20033;-73
2023/04/07 08:55:25;;;;;;;19.60;10.73;;;10.20;79.30;;;;;;5003220;28;20034;-72
2023/04/07 08:57:52;;;;;;;25.77;11.23;;;11.20;78.40;;;;;;5003879;28;20017;-73
2023/04/07 09:00:17;;;;;;;19.50;10.88;;;14.90;74.80;;;;;;5003721;28;20028;-72
2023/04/07 09:02:44;;;;;;;17.45;10.75;;;16.80;71.00;;;;;;5002028;28;20030;-73
2023/04/07 09:05:10;;;;;;;17.30;9.93;;;17.50;69.10;;;;;;5001818;28;20806;-73
2023/04/07 09:07:39;;;;;;;15.98;9.10;;;17.30;67.60;;;;;;5003867;28;20142;-72
2023/04/07 09:10:06;;;;;;;21.30;10.10;;;18.00;66.30;;;;;;5004003;28;20026;-72
2023/04/07 09:12:32;;;;;;;16.35;10.30;;;17.60;66.40;;;;;;5002761;28;20041;-72
2023/04/07 09:14:58;;;;;;;16.65;9.13;;;17.10;67.20;;;;;;5002035;28;20032;-72
2023/04/07 09:17:25;;;;;;;29.40;11.25;;;15.90;68.30;;;;;;4999212;28;20030;-71
2023/04/07 09:19:54;;;;;;;17.40;10.18;;;14.60;69.70;;;;;;5002930;28;20057;-72
2023/04/07 09:22:41;;;;;;;16.90;10.57;;;15.10;70.00;;;;;;5004184;28;20469;-72
2023/04/07 09:25:17;;;;;;;16.02;9.60;;;15.30;68.80;;;;;;4992358;28;21186;-72
2023/04/07 09:28:03;;;;;;;17.55;9.45;;;15.50;68.70;;;;;;5003122;28;20026;-73
2023/04/07 09:30:31;;;;;;;15.23;8.98;;;15.30;69.10;;;;;;5003830;28;20066;-71
2023/04/07 09:32:57;;;;;;;15.85;9.20;;;14.30;68.60;;;;;;5002774;28;20081;-71
2023/04/07 09:35:23;;;;;;;16.52;7.93;;;13.90;70.20;;;;;;4999401;28;20369;-73
2023/04/07 09:38:06;;;;;;;10.90;6.57;;;14.60;66.60;;;;;;4997421;28;20559;-72
2023/04/07 09:40:33;;;;;;;11.60;6.30;;;15.10;65.50;;;;;;5000645;28;20030;-72
2023/04/07 09:42:59;;;;;;;12.88;7.50;;;15.10;64.80;;;;;;5003995;28;20034;-72
2023/04/07 09:45:26;;;;;;;15.90;7.88;;;14.40;67.10;;;;;;5002741;28;20124;-72
2023/04/07 09:47:52;;;;;;;11.38;5.97;;;13.60;67.00;;;;;;4999328;28;20034;-73
2023/04/07 09:50:34;;;;;;;8.35;5.07;;;13.30;65.30;;;;;;5001268;28;20045;-72
2023/04/07 09:53:01;;;;;;;11.02;6.28;;;13.30;65.20;;;;;;5000205;28;20611;-74
2023/04/07 09:55:27;;;;;;;10.93;5.10;;;13.30;66.00;;;;;;5002936;28;20912;-73
2023/04/07 09:57:57;;;;;;;10.90;5.15;;;13.50;66.90;;;;;;5000878;28;20945;-72
2023/04/07 10:00:23;;;;;;;8.77;4.88;;;13.20;64.20;;;;;;4999158;28;20038;-71
2023/04/07 10:02:50;;;;;;;8.70;4.93;;;13.00;64.30;;;;;;5002723;28;20040;-72
2023/04/07 10:05:16;;;;;;;10.90;6.18;;;13.00;64.00;;;;;;5004008;28;20117;-72
2023/04/07 10:07:42;;;;;;;9.90;6.22;;;13.10;66.00;;;;;;5004548;28;20520;-72
2023/04/07 10:10:08;;;;;;;13.27;6.93;;;13.50;66.40;;;;;;5001412;28;20099;-72
2023/04/07 10:12:36;;;;;;;10.05;5.18;;;13.50;66.10;;;;;;4985793;28;20026;-72
2023/04/07 10:15:03;;;;;;;8.98;5.43;;;13.70;64.10;;;;;;5003055;28;20045;-72
2023/04/07 10:17:31;;;;;;;13.60;7.90;;;14.00;65.20;;;;;;5004597;28;20096;-72
2023/04/07 10:20:00;;;;;;;20.70;7.68;;;14.20;66.60;;;;;;5005549;28;20018;-72
2023/04/07 10:22:27;;;;;;;14.88;7.65;;;14.20;65.90;;;;;;5007834;28;20030;-72
2023/04/07 10:24:58;;;;;;;13.77;7.32;;;14.00;67.00;;;;;;5007669;28;20449;-72
2023/04/07 10:27:35;;;;;;;12.75;7.47;;;14.10;65.50;;;;;;5008237;28;20030;-72
2023/04/07 10:30:04;;;;;;;14.43;7.68;;;14.20;66.20;;;;;;5000727;28;20038;-72
2023/04/07 10:32:29;;;;;;;14.25;8.27;;;14.00;65.60;;;;;;5004604;28;20660;-72
2023/04/07 10:34:56;;;;;;;10.32;6.65;;;14.10;64.70;;;;;;5008106;28;20034;-72
2023/04/07 10:37:24;;;;;;;10.15;6.78;;;14.40;66.90;;;;;;5009149;28;20045;-72
2023/04/07 10:39:51;;;;;;;11.63;6.63;;;14.70;64.40;;;;;;5008292;28;20092;-72
2023/04/07 10:42:35;;;;;;;11.68;7.03;;;14.30;64.50;;;;;;5008236;28;20034;-72
2023/04/07 10:45:02;;;;;;;14.18;6.38;;;14.40;65.60;;;;;;5008657;28;20042;-72
2023/04/07 10:47:28;;;;;;;12.18;7.10;;;14.40;63.50;;;;;;5007830;28;20030;-72
2023/04/07 10:50:22;;;;;;;13.38;6.50;;;14.50;65.30;;;;;;5008687;28;20392;-71
2023/04/07 10:53:03;;;;;;;10.38;5.60;;;14.80;64.40;;;;;;5006881;28;20026;-72
2023/04/07 10:55:32;;;;;;;9.50;5.72;;;14.80;64.30;;;;;;5007903;28;20034;-72
2023/04/07 10:58:20;;;;;;;9.70;5.30;;;14.80;63.20;;;;;;5007935;28;20109;-72
2023/04/07 11:01:07;;;;;;;10.77;7.22;;;14.90;64.10;;;;;;5008496;28;20072;-71
2023/04/07 11:03:35;;;;;;;15.80;7.38;;;15.10;62.50;;;;;;5007347;28;20034;-71
2023/04/07 11:06:08;;;;;;;30.05;17.17;;;14.90;61.80;;;;;;5007336;28;20064;-71
2023/04/07 11:08:42;;;;;;;23.73;16.85;;;15.10;63.20;;;;;;5001836;28;20053;-72
2023/04/07 11:11:09;;;;;;;15.07;9.00;;;15.30;61.50;;;;;;5008138;28;20044;-71
2023/04/07 11:13:42;;;;;;;15.00;8.27;;;15.40;62.10;;;;;;5007251;28;20338;-72
2023/04/07 11:16:09;;;;;;;14.60;8.55;;;15.60;61.30;;;;;;5008438;28;20026;-72
2023/04/07 11:18:38;;;;;;;12.85;8.27;;;15.90;62.20;;;;;;5007284;28;20022;-72
2023/04/07 11:21:05;;;;;;;13.85;8.30;;;15.90;61.90;;;;;;5000752;28;20038;-72
2023/04/07 11:23:42;;;;;;;15.48;9.90;;;16.00;62.60;;;;;;4996377;28;20026;-72
2023/04/07 11:26:10;;;;;;;16.02;8.75;;;16.00;63.20;;;;;;5005893;28;20117;-72
2023/04/07 11:28:48;;;;;;;22.83;13.27;;;15.80;62.80;;;;;;5006195;28;20128;-73
2023/04/07 11:31:30;;;;;;;16.05;9.80;;;15.80;63.20;;;;;;4996079;28;20496;-74
2023/04/07 11:33:58;;;;;;;13.30;8.45;;;15.70;63.30;;;;;;5006006;28;20030;-72
2023/04/07 11:36:34;;;;;;;17.33;8.98;;;15.70;63.80;;;;;;5005964;28;20034;-72
2023/04/07 11:39:01;;;;;;;14.25;8.68;;;15.70;63.30;;;;;;5005700;28;20038;-71
2023/04/07 11:41:29;;;;;;;17.02;8.10;;;15.90;63.10;;;;;;5005483;28;20040;-70
2023/04/07 11:44:09;;;;;;;15.75;8.88;;;15.90;61.80;;;;;;5005545;28;20041;-71
2023/04/07 11:46:36;;;;;;;13.60;8.10;;;15.90;62.40;;;;;;5003939;28;20048;-71
2023/04/07 11:49:14;;;;;;;22.02;8.05;;;15.90;61.70;;;;;;5006113;28;20041;-71
2023/04/07 11:51:42;;;;;;;16.90;9.10;;;15.90;61.00;;;;;;5003811;28;20038;-72
2023/04/07 11:54:08;;;;;;;13.95;9.27;;;15.70;62.60;;;;;;4998840;28;20030;-70
2023/04/07 11:56:45;;;;;;;17.23;9.45;;;15.70;63.30;;;;;;5006118;28;20034;-71
2023/04/07 11:59:23;;;;;;;13.45;9.57;;;15.70;64.10;;;;;;5005558;28;20033;-71
2023/04/07 12:01:51;;;;;;;17.35;8.38;;;15.60;62.90;;;;;;5004869;28;20037;-72
2023/04/07 12:04:17;;;;;;;13.25;7.55;;;15.60;63.50;;;;;;4993492;28;20031;-73
2023/04/07 12:06:47;;;;;;;11.88;7.72;;;15.40;61.10;;;;;;5004926;28;20041;-76
2023/04/07 12:09:36;;;;;;;29.77;8.75;;;15.40;62.70;;;;;;5004364;28;20495;-73
2023/04/07 12:12:05;;;;;;;15.15;7.97;;;15.50;61.10;;;;;;5004154;28;20033;-75
2023/04/07 12:14:31;;;;;;;16.17;8.98;;;15.70;62.30;;;;;;5001362;28;20030;-75
2023/04/07 12:16:57;;;;;;;17.98;10.85;;;15.70;63.30;;;;;;5005949;28;20037;-73
2023/04/07 12:19:27;;;;;;;13.55;9.10;;;15.70;63.50;;;;;;5006819;28;20101;-73
2023/04/07 12:21:53;;;;;;;12.73;8.10;;;15.60;63.70;;;;;;5003653;28;20029;-72
2023/04/07 12:24:20;;;;;;;15.60;9.15;;;15.60;62.30;;;;;;4987244;28;20090;-73
2023/04/07 12:26:46;;;;;;;13.70;8.52;;;15.80;62.60;;;;;;5005169;28;20132;-71
2023/04/07 12:29:12;;;;;;;20.80;10.43;;;16.10;63.00;;;;;;5005918;28;20034;-72
2023/04/07 12:31:38;;;;;;;13.50;8.50;;;16.10;63.20;;;;;;5006035;28;20053;-73
2023/04/07 12:34:04;;;;;;;25.58;13.88;;;16.30;63.30;;;;;;5000760;28;20034;-73
2023/04/07 12:36:30;;;;;;;223.57;127.25;;;16.00;63.40;;;;;;5006332;28;20030;-72
2023/04/07 12:38:56;;;;;;;22.73;19.80;;;16.00;64.00;;;;;;5005606;28;20033;-73
2023/04/07 12:41:23;;;;;;;21.55;12.02;;;15.80;63.60;;;;;;5006605;28;20634;-72
2023/04/07 12:43:48;;;;;;;15.80;10.38;;;15.90;64.10;;;;;;4993528;28;20037;-73
2023/04/07 12:46:14;;;;;;;19.98;10.90;;;16.10;63.60;;;;;;5002119;28;20480;-73